Terminal Aerodrome Forecast
Issued by NWS

Home | Current Version | Previous Version | Text Only | Print | Product List | Glossary On
Versions: 1 2 3 4 5 6 7 8 9 10 11 12 13 14 15 16 17 18 19 20 21 22 23 24 25 26
000
FTUS45 KBOI 042320
TAFJER
TAF
KJER 042320Z 0500/0524 VRB06KT P6SM VCTS SCT080CB BKN150
      TEMPO 0500/0503 VRB15G25KT -TSRA BKN080CB
     FM050300 09008KT P6SM -SHRA VCTS BKN070CB OVC100
     FM051800 26014KT P6SM VCTS SCT070CB BKN100=

USA.gov is the U.S. government's official web portal to all federal, state and local government web resources and services.